Track Глухов Валерий

Time Latitude Longitude Accuracy (66% radius in meters) Altitude (meters) Speed (km/hour) Bearing (degrees) Battery (%) GPS flag
08:48:13 55.921090 37.362024 6 184 0 286.84365844727 54 1 delete
08:46:32 55.921019 37.362119 6 191 1.5437276363373 31.019605636597 64 1 delete
08:46:30 55.920981 37.362064 6 189 2.2494697570801 50.055191040039 64 1 delete
08:46:28 55.920951 37.362001 6 188 4.8105716705322 54.74951171875 64 1 delete
08:46:27 55.920923 37.361928 6 188 6.0778460502625 53.829891204834 64 1 delete
08:46:26 55.920891 37.361842 6 187 6.5429105758667 51.985710144043 64 1 delete
08:46:25 55.920855 37.361751 6 185 6.3117074966431 50.771141052246 64 1 delete
08:46:24 55.920822 37.361674 6 183 5.9031610488892 48.377388000488 64 1 delete
08:46:23 55.920791 37.361614 6 183 6.1380076408386 49.143600463867 64 1 delete
08:46:22 55.920754 37.361541 6 184 6.5354566574097 50.769786834717 64 1 delete
08:46:21 55.920715 37.361457 6 183 6.8673191070557 51.533428192139 64 1 delete
08:46:20 55.920677 37.361367 6 183 6.6876549720764 50.869846343994 64 1 delete
08:46:19 55.920637 37.361278 6 183 6.8400988578796 49.52364730835 64 1 delete
08:46:18 55.920595 37.361186 6 184 6.3773956298828 48.030242919922 64 1 delete
08:46:17 55.920558 37.361109 6 183 6.0840716362 45.391414642334 64 1 delete
08:46:16 55.920520 37.361041 6 184 5.533905506134 43.315185546875 64 1 delete
08:46:14 55.920445 37.360956 6 186 4.9889812469482 6.3902969360352 64 1 delete
08:46:13 55.920397 37.360954 6 188 5.5571708679199 351.53344726562 64 1 delete
08:46:12 55.920345 37.360974 6 188 5.5396938323975 352.94998168945 64 1 delete
08:46:11 55.920291 37.360987 6 187 5.6295804977417 356.48461914062 64 1 delete
08:46:10 55.920234 37.360993 6 188 5.0612273216248 358.54092407227 64 1 delete
08:46:09 55.920177 37.360994 6 187 5.3366665840149 359.92114257812 64 1 delete
08:46:08 55.920117 37.360994 6 187 5.2346248626709 0.76831859350204 64 1 delete
08:46:07 55.920052 37.360991 6 187 5.1226606369019 1.704837679863 64 1 delete
08:46:06 55.919991 37.360984 6 187 5.049135684967 2.3494710922241 64 1 delete
08:46:05 55.919924 37.360972 6 186 4.7853102684021 3.5345363616943 64 1 delete
08:46:03 55.919830 37.360941 6 185 4.5759463310242 21.641668319702 64 1 delete
08:46:01 55.919741 37.360866 6 184 3.8169023990631 23.343711853027 64 1 delete
08:46:00 55.919695 37.360834 6 183 4.4092345237732 21.161714553833 64 1 delete
08:45:59 55.919647 37.360804 6 182 4.4981732368469 21.545743942261 64 1 delete
08:45:58 55.919593 37.360773 8 184 4.5895671844482 22.162389755249 64 1 delete
08:45:57 55.919550 37.360745 8 185 4.82563829422 21.775749206543 64 1 delete
08:45:55 55.919471 37.360691 8 185 4.2814531326294 24.384094238281 64 1 delete
08:45:53 55.919403 37.360613 8 186 3.859224319458 44.55785369873 64 1 delete
08:45:51 55.919355 37.360532 6 181 4.2728128433228 49.469337463379 64 1 delete
08:45:49 55.919324 37.360427 6 179 4.8876194953918 71.555770874023 64 1 delete
08:45:47 55.919308 37.360304 6 178 5.2964735031128 71.571929931641 64 1 delete
08:45:46 55.919298 37.360225 12 178 5.2335515022278 70.249336242676 64 1 delete
08:45:45 55.919286 37.360144 6 179 5.5147333145142 68.074768066406 64 1 delete
08:45:44 55.919270 37.360059 6 178 5.3817420005798 67.089370727539 64 1 delete
08:45:43 55.919251 37.359967 6 176 5.5141367912292 65.199378967285 64 1 delete
08:45:42 55.919233 37.359880 6 177 5.8092637062073 62.664459228516 64 1 delete
08:45:41 55.919209 37.359787 6 178 5.9192872047424 60.661205291748 64 1 delete
08:45:40 55.919182 37.359695 6 177 5.8401246070862 58.57682800293 64 1 delete
08:45:39 55.919152 37.359601 6 177 6.1034893989563 57.143600463867 64 1 delete
08:45:38 55.919119 37.359500 6 175 6.1092953681946 56.330558776855 64 1 delete
08:45:37 55.919086 37.359401 6 175 6.1362257003784 55.666519165039 64 1 delete
08:45:36 55.919052 37.359297 8 175 6.3571419715881 54.232479095459 64 1 delete
08:45:35 55.919018 37.359199 8 175 6.5660119056702 52.814525604248 64 1 delete
08:45:34 55.918983 37.359114 8 175 6.3563756942749 52.466739654541 64 1 delete